Time;durP1;ratioP1;P1;durP2;ratioP2;P2;SDS_P1;SDS_P2;PMS_P1;PMS_P2;Temp;Humidity;BMP_temperature;BMP_pressure;BME280_temperature;BME280_humidity;BME280_pressure;Samples;Min_cycle;Max_cycle;Signal;HPM_P1;HPM_P2
2021/12/31 00:00:28;;;;;;;5.03;3.00;;;-0.90;99.90;;;;;;4954109;28;20031;-78
2021/12/31 00:02:54;;;;;;;6.22;3.40;;;-0.80;99.90;;;;;;4953897;28;20098;-78
2021/12/31 00:05:20;;;;;;;5.15;3.22;;;-0.90;99.90;;;;;;4952506;28;20066;-78
2021/12/31 00:07:46;;;;;;;8.35;3.10;;;-0.90;99.90;;;;;;4954097;28;20030;-78
2021/12/31 00:10:12;;;;;;;4.93;2.95;;;-0.90;99.90;;;;;;4953808;28;20032;-78
2021/12/31 00:12:40;;;;;;;3.83;2.70;;;-0.90;99.90;;;;;;4954352;28;20027;-78
2021/12/31 00:15:06;;;;;;;3.80;2.88;;;-0.80;99.90;;;;;;4957374;28;20467;-78
2021/12/31 00:17:32;;;;;;;4.90;3.08;;;-0.80;99.90;;;;;;4957533;28;20111;-78
2021/12/31 00:20:05;;;;;;;5.10;2.97;;;-0.70;99.90;;;;;;4957814;28;20081;-78
2021/12/31 00:24:59;;;;;;;6.30;3.35;;;-0.80;99.90;;;;;;4957498;28;20027;-77
2021/12/31 00:27:25;;;;;;;5.95;3.58;;;-0.90;99.90;;;;;;4957259;28;20498;-77
2021/12/31 00:29:51;;;;;;;5.35;3.35;;;-1.00;99.90;;;;;;4957442;28;20487;-77
2021/12/31 00:32:18;;;;;;;4.93;3.10;;;-1.10;99.90;;;;;;4957435;28;20027;-78
2021/12/31 00:34:45;;;;;;;5.32;2.63;;;-1.20;99.90;;;;;;4957369;28;20063;-78
2021/12/31 00:37:10;;;;;;;4.30;2.67;;;-1.20;99.90;;;;;;4956961;28;20168;-77
2021/12/31 00:39:36;;;;;;;4.05;2.80;;;-1.30;99.90;;;;;;4957282;28;20061;-78
2021/12/31 00:42:03;;;;;;;5.13;2.65;;;-1.30;99.90;;;;;;4957390;28;20114;-77
2021/12/31 00:44:28;;;;;;;6.55;3.20;;;-1.40;99.90;;;;;;4955744;28;20039;-78
2021/12/31 00:46:54;;;;;;;5.03;3.25;;;-1.40;99.90;;;;;;4957322;28;20034;-78
2021/12/31 00:49:20;;;;;;;4.30;2.58;;;-1.30;99.90;;;;;;4956977;28;20097;-78
2021/12/31 00:51:46;;;;;;;4.13;3.17;;;-1.20;99.90;;;;;;4957067;28;20435;-77
2021/12/31 00:54:11;;;;;;;3.83;2.90;;;-1.20;99.90;;;;;;4957275;28;20070;-76
2021/12/31 00:56:37;;;;;;;5.13;3.55;;;-1.20;99.90;;;;;;4956906;28;20136;-76
2021/12/31 00:59:03;;;;;;;5.75;3.50;;;-1.30;99.90;;;;;;4957007;28;20039;-76
2021/12/31 01:01:31;;;;;;;5.85;3.10;;;-1.30;99.90;;;;;;4956782;28;20015;-76
2021/12/31 01:03:57;;;;;;;7.40;3.33;;;-1.30;99.90;;;;;;4957114;28;20364;-76
2021/12/31 01:06:23;;;;;;;9.60;3.47;;;-1.30;99.90;;;;;;4956600;28;20030;-76
2021/12/31 01:08:49;;;;;;;6.22;3.17;;;-1.30;99.90;;;;;;4957017;28;20055;-77
2021/12/31 01:11:15;;;;;;;6.05;3.15;;;-1.30;99.90;;;;;;4956652;28;20395;-77
2021/12/31 01:16:18;;;;;;;4.68;3.25;;;-1.40;99.90;;;;;;4956545;28;20019;-75
2021/12/31 01:21:20;;;;;;;3.83;2.40;;;-1.50;99.90;;;;;;4956418;28;20016;-77
2021/12/31 01:23:50;;;;;;;4.40;2.65;;;-1.60;99.90;;;;;;4956673;28;20051;-75
2021/12/31 01:26:17;;;;;;;3.78;2.60;;;-1.70;99.90;;;;;;4955896;28;20126;-76
2021/12/31 01:28:43;;;;;;;6.03;2.35;;;-1.80;99.90;;;;;;4956307;28;20046;-76
2021/12/31 01:31:08;;;;;;;4.80;2.53;;;-1.80;99.90;;;;;;4956204;28;20032;-77
2021/12/31 01:33:34;;;;;;;4.03;2.72;;;-1.90;99.90;;;;;;4956158;28;20035;-77
2021/12/31 01:36:00;;;;;;;4.25;2.80;;;-1.80;99.90;;;;;;4956156;28;20091;-74
2021/12/31 01:38:27;;;;;;;4.25;2.70;;;-1.70;99.90;;;;;;4955832;28;20054;-74
2021/12/31 01:40:52;;;;;;;4.20;2.55;;;-1.60;99.90;;;;;;4955004;29;20554;-74
2021/12/31 01:43:19;;;;;;;3.05;2.58;;;-1.60;99.90;;;;;;4955910;28;20031;-74
2021/12/31 01:45:55;;;;;;;3.83;3.00;;;-1.50;99.90;;;;;;4956272;28;20023;-74
2021/12/31 01:48:35;;;;;;;3.92;2.63;;;-1.50;99.90;;;;;;4955913;28;20027;-74
2021/12/31 01:51:02;;;;;;;3.63;2.50;;;-1.60;99.90;;;;;;4956332;28;20078;-75
2021/12/31 01:53:28;;;;;;;3.60;2.53;;;-1.60;99.90;;;;;;4955728;28;20034;-75
2021/12/31 01:56:00;;;;;;;4.78;2.22;;;-1.60;99.90;;;;;;4955929;28;20078;-77
2021/12/31 01:58:26;;;;;;;3.90;2.55;;;-1.60;99.90;;;;;;4955583;28;20045;-77
2021/12/31 02:00:53;;;;;;;4.68;2.30;;;-1.70;99.90;;;;;;4955838;28;20524;-77
2021/12/31 02:03:20;;;;;;;3.15;2.33;;;-1.70;99.90;;;;;;4955650;28;20036;-77
2021/12/31 02:05:46;;;;;;;3.22;2.25;;;-1.70;99.90;;;;;;4955661;28;20023;-76
2021/12/31 02:08:12;;;;;;;3.78;2.47;;;-1.60;99.90;;;;;;4955748;28;20039;-76
2021/12/31 02:10:38;;;;;;;4.28;2.70;;;-1.70;99.90;;;;;;4955673;28;20031;-76
2021/12/31 02:13:04;;;;;;;3.95;2.60;;;-1.70;99.90;;;;;;4955528;28;20035;-76
2021/12/31 02:15:30;;;;;;;3.55;2.42;;;-1.70;99.90;;;;;;4955402;28;20170;-76
2021/12/31 02:17:59;;;;;;;3.42;2.45;;;-1.70;99.90;;;;;;4955410;28;20550;-76
2021/12/31 02:20:43;;;;;;;3.38;2.47;;;-1.60;99.90;;;;;;4954197;28;20031;-75
2021/12/31 02:23:25;;;;;;;3.85;2.72;;;-1.60;99.90;;;;;;4955453;28;20026;-75
2021/12/31 02:54:59;;;;;;;3.10;2.28;;;-1.80;99.90;;;;;;4943339;28;20055;-76
2021/12/31 02:57:25;;;;;;;3.60;2.92;;;-1.80;99.90;;;;;;4953283;28;20372;-76
2021/12/31 02:59:50;;;;;;;4.00;2.97;;;-1.80;99.90;;;;;;4954729;28;20033;-77
2021/12/31 03:02:23;;;;;;;2.70;2.20;;;-1.90;99.90;;;;;;4954693;28;20066;-77
2021/12/31 03:38:49;;;;;;;3.70;2.40;;;-1.80;99.90;;;;;;5143247;23;20092;-69
2021/12/31 03:41:14;;;;;;;5.10;2.80;;;-1.80;99.90;;;;;;4954180;28;20058;-69
2021/12/31 03:43:40;;;;;;;3.60;2.47;;;-1.80;99.90;;;;;;4954144;28;20023;-70
2021/12/31 03:46:07;;;;;;;3.33;2.65;;;-1.80;99.90;;;;;;4954028;28;20468;-70
2021/12/31 03:48:33;;;;;;;3.65;2.42;;;-1.80;99.90;;;;;;4953694;28;20024;-70
2021/12/31 03:50:59;;;;;;;2.92;2.20;;;-1.80;99.90;;;;;;4954143;28;20034;-72
2021/12/31 03:53:24;;;;;;;3.90;2.30;;;-1.80;99.90;;;;;;4953990;28;20031;-72
2021/12/31 03:55:50;;;;;;;2.88;2.25;;;-1.90;99.90;;;;;;4954053;28;20475;-73
2021/12/31 03:58:17;;;;;;;3.38;2.35;;;-1.90;99.90;;;;;;4953836;28;20046;-73
2021/12/31 04:00:44;;;;;;;3.88;2.40;;;-2.00;99.90;;;;;;4953860;28;20054;-74
2021/12/31 04:03:12;;;;;;;3.10;1.95;;;-1.90;99.90;;;;;;4953919;28;20102;-74
2021/12/31 04:05:40;;;;;;;3.17;2.25;;;-2.00;99.90;;;;;;4953960;28;20027;-74
2021/12/31 04:08:06;;;;;;;4.55;2.58;;;-2.10;99.90;;;;;;4953823;28;20023;-73
2021/12/31 04:10:32;;;;;;;4.15;2.28;;;-2.00;99.90;;;;;;4953811;28;20505;-71
2021/12/31 04:12:58;;;;;;;3.75;2.00;;;-2.00;99.90;;;;;;4954111;28;20102;-71
2021/12/31 04:15:24;;;;;;;2.88;2.00;;;-2.00;99.90;;;;;;4953793;28;20027;-71
2021/12/31 04:17:49;;;;;;;3.67;1.80;;;-2.10;99.90;;;;;;4953916;28;20038;-71
2021/12/31 04:20:21;;;;;;;2.95;2.00;;;-2.10;99.90;;;;;;4952684;29;20120;-71
2021/12/31 04:22:55;;;;;;;2.95;2.17;;;-2.20;99.90;;;;;;4953618;28;20023;-71
2021/12/31 04:25:22;;;;;;;4.13;2.20;;;-2.10;99.90;;;;;;4954032;28;20059;-71
2021/12/31 04:27:48;;;;;;;4.43;2.10;;;-2.20;99.90;;;;;;4953479;28;20023;-71
2021/12/31 04:30:14;;;;;;;3.70;2.05;;;-2.20;99.90;;;;;;4953684;28;20390;-71
2021/12/31 04:32:42;;;;;;;2.85;2.10;;;-2.20;99.90;;;;;;4953424;28;20065;-71
2021/12/31 04:35:10;;;;;;;4.18;2.40;;;-2.10;99.90;;;;;;4953662;28;20031;-71
2021/12/31 04:37:35;;;;;;;3.80;2.25;;;-2.00;99.90;;;;;;4953125;28;20043;-74
2021/12/31 04:40:01;;;;;;;3.28;2.40;;;-2.00;99.90;;;;;;4953476;28;20031;-74
2021/12/31 04:42:27;;;;;;;3.47;2.00;;;-2.10;99.90;;;;;;4953391;28;20036;-71
2021/12/31 04:44:52;;;;;;;2.22;1.92;;;-2.30;99.90;;;;;;4953516;28;20042;-71
2021/12/31 04:47:18;;;;;;;3.08;2.08;;;-2.30;99.90;;;;;;4953726;28;20303;-71
2021/12/31 04:49:44;;;;;;;3.13;2.20;;;-2.30;99.90;;;;;;4953616;28;20024;-71
2021/12/31 04:52:10;;;;;;;3.25;2.00;;;-2.40;99.90;;;;;;4953474;28;20419;-71
2021/12/31 04:54:35;;;;;;;2.88;1.90;;;-2.40;99.90;;;;;;4953552;28;20027;-73
2021/12/31 04:57:03;;;;;;;3.20;2.20;;;-2.50;99.90;;;;;;4953735;28;20123;-71
2021/12/31 04:59:28;;;;;;;4.82;2.20;;;-2.50;99.90;;;;;;4952165;28;20078;-71
2021/12/31 05:01:54;;;;;;;2.53;2.05;;;-2.60;99.90;;;;;;4957218;28;20054;-71
2021/12/31 05:04:20;;;;;;;3.85;1.95;;;-2.60;99.90;;;;;;4956693;28;20029;-74
2021/12/31 05:06:48;;;;;;;3.00;1.85;;;-2.70;99.90;;;;;;4956744;28;20467;-73
2021/12/31 05:09:14;;;;;;;3.45;2.20;;;-2.70;99.90;;;;;;4956806;28;20034;-73
2021/12/31 05:11:40;;;;;;;2.95;2.10;;;-2.60;99.90;;;;;;4956682;28;20031;-73
2021/12/31 05:14:06;;;;;;;5.38;2.55;;;-2.70;99.90;;;;;;4957060;28;20074;-74
2021/12/31 05:16:31;;;;;;;4.20;1.95;;;-2.70;99.90;;;;;;4956889;28;20372;-73
2021/12/31 05:18:57;;;;;;;4.40;2.17;;;-2.80;99.90;;;;;;4956900;28;20039;-73
2021/12/31 05:21:23;;;;;;;3.38;2.25;;;-2.90;99.90;;;;;;4956686;28;20443;-73
2021/12/31 05:23:48;;;;;;;4.75;2.40;;;-2.80;99.90;;;;;;4956398;28;20046;-73
2021/12/31 05:26:14;;;;;;;3.45;2.08;;;-2.80;99.90;;;;;;4956559;28;20110;-72
2021/12/31 05:28:40;;;;;;;2.17;1.98;;;-2.80;99.90;;;;;;4956197;28;20062;-74
2021/12/31 05:31:06;;;;;;;2.72;1.92;;;-2.80;99.90;;;;;;4955328;29;20394;-74
2021/12/31 05:33:33;;;;;;;3.42;2.35;;;-2.90;99.90;;;;;;4956151;28;20031;-80
2021/12/31 05:36:00;;;;;;;2.55;2.00;;;-2.90;99.90;;;;;;4956342;28;20070;-77
2021/12/31 05:38:26;;;;;;;3.17;2.13;;;-2.90;99.90;;;;;;4955946;28;20055;-73
2021/12/31 05:40:52;;;;;;;3.55;1.95;;;-2.90;99.90;;;;;;4956083;28;20030;-71
2021/12/31 05:43:18;;;;;;;3.30;1.85;;;-2.80;99.90;;;;;;4956117;28;20028;-69
2021/12/31 05:45:43;;;;;;;2.90;2.20;;;-2.60;99.90;;;;;;4956216;28;20031;-71
2021/12/31 05:48:09;;;;;;;2.47;1.92;;;-2.70;99.90;;;;;;4955829;28;20027;-72
2021/12/31 05:50:35;;;;;;;3.75;2.22;;;-2.90;99.90;;;;;;4950106;28;20035;-70
2021/12/31 05:53:01;;;;;;;3.42;2.08;;;-3.00;99.90;;;;;;4938585;28;20031;-70
2021/12/31 05:55:27;;;;;;;3.38;2.28;;;-3.10;99.90;;;;;;4944270;29;20483;-72
2021/12/31 05:57:55;;;;;;;3.88;2.00;;;-3.20;99.90;;;;;;4949511;29;20035;-70
2021/12/31 06:00:25;;;;;;;4.65;2.53;;;-3.20;99.90;;;;;;4950238;28;20027;-72
2021/12/31 06:02:51;;;;;;;;;;;-3.30;99.90;;;;;;4944643;28;20375;-70
2021/12/31 06:05:17;;;;;;;4.13;2.28;;;-3.30;99.90;;;;;;4938142;29;19910;-68
2021/12/31 06:07:42;;;;;;;2.65;1.80;;;-3.40;99.90;;;;;;4946998;29;20032;-70
2021/12/31 06:10:08;;;;;;;2.20;2.00;;;-3.50;99.90;;;;;;4939175;28;20027;-70
2021/12/31 06:12:35;;;;;;;4.38;2.15;;;-3.50;99.90;;;;;;4945750;28;20035;-69
2021/12/31 06:15:04;;;;;;;2.70;2.15;;;-3.50;99.90;;;;;;4949611;29;20028;-69
2021/12/31 06:17:31;;;;;;;3.33;2.05;;;-3.60;99.90;;;;;;4937153;29;20032;-69
2021/12/31 06:19:57;;;;;;;3.03;2.00;;;-3.60;99.90;;;;;;4945344;29;20036;-70
2021/12/31 06:22:24;;;;;;;4.00;2.28;;;-3.60;99.90;;;;;;4943761;29;20071;-70
2021/12/31 06:24:50;;;;;;;3.35;2.15;;;-3.70;99.90;;;;;;4946550;29;20023;-70
2021/12/31 06:27:16;;;;;;;3.92;1.77;;;-3.80;99.90;;;;;;4945942;28;20020;-70
2021/12/31 06:29:42;;;;;;;2.33;1.98;;;-3.90;99.90;;;;;;4945286;29;20387;-70
2021/12/31 06:32:08;;;;;;;3.03;1.83;;;-4.00;99.90;;;;;;4949908;28;20110;-70
2021/12/31 06:34:34;;;;;;;2.40;1.83;;;-4.00;99.90;;;;;;4955104;28;20024;-72
2021/12/31 06:37:00;;;;;;;2.53;2.10;;;-4.00;99.90;;;;;;4955331;28;20467;-72
2021/12/31 06:39:26;;;;;;;3.63;1.90;;;-4.00;99.90;;;;;;4954948;28;20511;-72
2021/12/31 06:41:52;;;;;;;2.83;2.05;;;-3.80;99.90;;;;;;4955033;28;20030;-72
2021/12/31 06:44:18;;;;;;;2.67;2.20;;;-3.90;99.90;;;;;;4955086;28;20479;-72
2021/12/31 06:46:44;;;;;;;5.40;2.22;;;-4.00;99.90;;;;;;4954919;28;20031;-73
2021/12/31 06:49:09;;;;;;;2.42;1.83;;;-4.10;99.90;;;;;;4954355;28;20074;-72
2021/12/31 06:51:35;;;;;;;1.92;1.75;;;-4.20;99.90;;;;;;4953577;28;20107;-72
2021/12/31 06:54:01;;;;;;;2.92;2.05;;;-4.30;99.90;;;;;;4954828;28;20086;-72
2021/12/31 06:56:27;;;;;;;2.85;2.17;;;-4.40;99.90;;;;;;4953586;28;20024;-72
2021/12/31 06:58:53;;;;;;;2.55;1.95;;;-4.50;99.90;;;;;;4953274;28;20046;-72
2021/12/31 07:01:19;;;;;;;2.15;1.92;;;-4.50;99.90;;;;;;4953466;28;20027;-72
2021/12/31 07:03:45;;;;;;;3.28;2.05;;;-4.50;99.90;;;;;;4953194;28;20501;-72
2021/12/31 07:06:10;;;;;;;3.83;2.10;;;-4.50;99.90;;;;;;4953405;28;20066;-72
2021/12/31 07:08:38;;;;;;;2.20;1.73;;;-4.60;99.90;;;;;;4954299;28;20118;-72
2021/12/31 07:11:04;;;;;;;3.83;2.67;;;-4.60;99.90;;;;;;4954565;28;20016;-72
2021/12/31 07:13:30;;;;;;;2.90;2.05;;;-4.70;99.90;;;;;;4954522;28;20028;-74
2021/12/31 07:15:55;;;;;;;3.90;2.25;;;-4.70;99.90;;;;;;4954368;28;20496;-67
2021/12/31 07:18:22;;;;;;;2.65;1.92;;;-2.80;99.90;;;;;;4954594;28;20080;-68
2021/12/31 07:20:49;;;;;;;2.80;2.08;;;-3.00;99.90;;;;;;4954312;28;20546;-69
2021/12/31 07:23:16;;;;;;;2.38;1.90;;;-3.60;99.90;;;;;;4949105;28;20039;-70
2021/12/31 07:25:43;;;;;;;4.35;2.90;;;-4.00;99.90;;;;;;4945276;29;20159;-69
2021/12/31 07:28:10;;;;;;;9.15;3.67;;;-4.40;99.90;;;;;;4947206;29;20055;-68
2021/12/31 07:30:36;;;;;;;114.07;37.13;;;-4.60;99.90;;;;;;4949610;28;20020;-69
2021/12/31 07:33:02;;;;;;;23.15;7.72;;;-4.60;99.90;;;;;;4935376;29;20391;-69
2021/12/31 07:35:28;;;;;;;2.85;2.13;;;-4.70;99.90;;;;;;4949744;29;20028;-68
2021/12/31 07:37:56;;;;;;;4.18;2.03;;;-4.80;99.90;;;;;;4934637;29;20044;-69
2021/12/31 07:40:27;;;;;;;4.03;2.40;;;-4.80;99.90;;;;;;4937308;29;20040;-70
2021/12/31 07:42:53;;;;;;;8.20;4.28;;;-4.90;99.90;;;;;;4944064;28;20027;-70
2021/12/31 07:45:20;;;;;;;4.13;3.17;;;-5.00;99.90;;;;;;4944742;29;20028;-70
2021/12/31 07:47:46;;;;;;;3.38;2.70;;;-5.10;99.90;;;;;;4942888;28;20506;-70
2021/12/31 07:50:12;;;;;;;4.28;2.60;;;-5.20;99.90;;;;;;4943033;28;20032;-69
2021/12/31 07:52:38;;;;;;;4.72;2.30;;;-5.20;99.90;;;;;;4953982;28;20062;-71
2021/12/31 07:55:05;;;;;;;5.70;3.40;;;-5.10;99.90;;;;;;4954019;28;20109;-80
2021/12/31 07:57:30;;;;;;;6.03;3.42;;;-5.00;99.90;;;;;;4953822;28;20032;-71
2021/12/31 07:59:56;;;;;;;2.67;2.20;;;-5.10;99.90;;;;;;4953713;28;20083;-70
2021/12/31 08:02:21;;;;;;;3.22;2.10;;;-4.60;99.90;;;;;;4954044;28;20059;-71
2021/12/31 08:04:47;;;;;;;4.07;2.50;;;-4.70;99.90;;;;;;4953857;28;20019;-72
2021/12/31 08:07:13;;;;;;;4.55;2.42;;;-4.90;99.90;;;;;;4953972;28;20036;-73
2021/12/31 08:09:39;;;;;;;3.15;2.33;;;-5.00;99.90;;;;;;4953794;28;20032;-73
2021/12/31 08:12:05;;;;;;;2.85;2.10;;;-5.10;99.90;;;;;;4952715;28;20031;-73
2021/12/31 08:14:31;;;;;;;2.75;2.15;;;-5.00;99.90;;;;;;4953811;28;20023;-73
2021/12/31 08:16:56;;;;;;;3.20;2.42;;;-5.10;99.90;;;;;;4950884;28;20442;-73
2021/12/31 08:19:22;;;;;;;3.97;2.83;;;-5.20;99.90;;;;;;4949558;28;20046;-74
2021/12/31 08:21:48;;;;;;;3.60;2.15;;;-5.20;99.90;;;;;;4947846;29;20514;-73
2021/12/31 08:24:14;;;;;;;2.40;2.00;;;-5.20;99.90;;;;;;4953693;28;20027;-74
2021/12/31 08:26:39;;;;;;;4.32;2.35;;;-5.30;99.90;;;;;;4949940;28;20036;-74
2021/12/31 08:29:05;;;;;;;4.63;2.28;;;-5.30;99.90;;;;;;4944985;29;20027;-74
2021/12/31 08:31:31;;;;;;;3.13;2.20;;;-5.30;99.90;;;;;;4944371;29;20023;-73
2021/12/31 08:33:57;;;;;;;2.75;1.88;;;-5.40;99.90;;;;;;4954507;28;20345;-73
2021/12/31 08:36:22;;;;;;;3.00;2.17;;;-5.40;99.90;;;;;;4956175;28;20027;-73
2021/12/31 08:38:48;;;;;;;3.80;2.25;;;-5.40;99.90;;;;;;4955532;28;20418;-74
2021/12/31 08:41:14;;;;;;;3.83;2.63;;;-5.20;99.90;;;;;;4957304;28;20024;-75
2021/12/31 08:43:40;;;;;;;3.25;2.10;;;-5.20;99.90;;;;;;4957040;28;20086;-76
2021/12/31 08:46:05;;;;;;;2.60;1.88;;;-5.30;99.90;;;;;;4954227;28;20523;-76
2021/12/31 08:48:31;;;;;;;3.47;2.22;;;-5.00;99.90;;;;;;4957299;28;20038;-76
2021/12/31 08:50:57;;;;;;;2.00;1.80;;;-4.60;99.90;;;;;;4957033;28;20427;-73
2021/12/31 08:53:22;;;;;;;3.65;2.40;;;-4.70;99.90;;;;;;4952528;28;20063;-76
2021/12/31 08:55:48;;;;;;;3.35;2.50;;;-4.60;99.90;;;;;;4957090;28;20035;-76
2021/12/31 08:58:14;;;;;;;3.42;2.67;;;-4.60;99.90;;;;;;4956933;28;20028;-77
2021/12/31 09:00:40;;;;;;;3.63;2.85;;;-4.90;99.90;;;;;;4957019;28;20027;-75
2021/12/31 09:03:05;;;;;;;3.17;2.55;;;-5.00;99.90;;;;;;4941725;28;20078;-76
2021/12/31 09:05:33;;;;;;;4.03;2.70;;;-5.00;99.90;;;;;;4937688;29;20586;-76
2021/12/31 09:07:59;;;;;;;3.22;2.45;;;-5.10;99.90;;;;;;4937465;29;20245;-78
2021/12/31 09:10:25;;;;;;;4.00;2.40;;;-5.10;99.90;;;;;;4937765;29;20019;-78
2021/12/31 09:12:50;;;;;;;2.33;1.98;;;-5.10;99.90;;;;;;4951258;29;20110;-77
2021/12/31 09:15:17;;;;;;;115.05;48.78;;;-4.80;99.90;;;;;;4956581;28;20027;-75
2021/12/31 09:17:44;;;;;;;53.88;22.55;;;-4.40;99.90;;;;;;4956683;28;20038;-77
2021/12/31 09:20:10;;;;;;;123.22;54.08;;;-4.20;99.90;;;;;;4956555;28;20050;-73
2021/12/31 09:22:36;;;;;;;71.78;30.08;;;-4.10;99.90;;;;;;4956508;28;20559;-78
2021/12/31 09:25:03;;;;;;;80.38;32.13;;;-4.20;99.90;;;;;;4956373;28;20067;-76
2021/12/31 09:27:29;;;;;;;12.48;6.18;;;-4.30;99.90;;;;;;4956749;28;20360;-82
2021/12/31 09:29:55;;;;;;;32.72;14.82;;;-3.10;99.90;;;;;;4956579;28;20027;-74
2021/12/31 09:32:21;;;;;;;23.05;15.95;;;-2.50;99.90;;;;;;4956452;28;20030;-73
2021/12/31 09:34:48;;;;;;;6.10;4.68;;;-2.80;99.90;;;;;;4956257;28;20027;-73
2021/12/31 09:37:15;;;;;;;3.25;2.95;;;-3.40;99.90;;;;;;4956221;28;20030;-72
2021/12/31 09:39:41;;;;;;;4.57;3.25;;;-3.80;99.90;;;;;;4956094;28;20035;-73
2021/12/31 09:42:08;;;;;;;2.85;2.55;;;-4.10;99.90;;;;;;4956325;28;20026;-73
2021/12/31 09:44:35;;;;;;;3.38;3.08;;;-4.40;99.90;;;;;;4956070;28;20179;-72
2021/12/31 09:47:07;;;;;;;4.10;2.40;;;-4.50;99.90;;;;;;4955318;28;20584;-73
2021/12/31 09:49:34;;;;;;;3.20;2.40;;;-4.50;99.90;;;;;;4954780;28;20360;-73
2021/12/31 09:52:02;;;;;;;2.63;2.20;;;-4.60;99.90;;;;;;4954624;28;20035;-74
2021/12/31 09:54:27;;;;;;;5.15;3.25;;;-4.70;99.90;;;;;;4955931;28;20023;-72
2021/12/31 09:56:53;;;;;;;5.38;3.28;;;-4.70;99.90;;;;;;4943566;28;20087;-74
2021/12/31 09:59:19;;;;;;;4.07;2.78;;;-4.80;99.90;;;;;;4941090;29;20114;-73
2021/12/31 10:01:52;;;;;;;3.17;2.22;;;-4.80;99.90;;;;;;4935878;29;20051;-73
2021/12/31 10:04:18;;;;;;;3.05;2.17;;;-4.90;99.90;;;;;;4937425;28;20027;-72
2021/12/31 10:07:12;;;;;;;2.50;2.00;;;-4.90;99.90;;;;;;4945623;29;20023;-73
2021/12/31 10:09:40;;;;;;;3.38;1.98;;;-5.00;99.90;;;;;;4936761;29;20032;-72
2021/12/31 10:12:07;;;;;;;2.65;1.90;;;-5.10;99.90;;;;;;4951534;29;20130;-73
2021/12/31 10:14:39;;;;;;;2.80;2.10;;;-5.10;99.90;;;;;;4955627;28;20039;-72
2021/12/31 10:17:06;;;;;;;3.50;2.53;;;-5.10;99.90;;;;;;4954293;29;20095;-72
2021/12/31 10:19:32;;;;;;;3.90;2.40;;;-5.10;99.90;;;;;;4936645;28;20075;-72
2021/12/31 10:21:58;;;;;;;3.47;2.72;;;-5.10;99.90;;;;;;4936256;29;20024;-72
2021/12/31 10:24:38;;;;;;;3.05;2.38;;;-5.20;99.90;;;;;;4934926;29;20087;-71
2021/12/31 10:27:12;;;;;;;3.00;2.23;;;-5.20;99.90;;;;;;4947869;29;20042;-73
2021/12/31 10:29:52;;;;;;;1.83;1.65;;;-5.20;99.90;;;;;;4955291;28;20029;-72
2021/12/31 10:32:18;;;;;;;4.28;2.08;;;-5.30;99.90;;;;;;4954114;28;20106;-75
2021/12/31 10:34:44;;;;;;;1.52;1.40;;;-5.40;99.90;;;;;;4937310;28;20028;-74
2021/12/31 10:37:17;;;;;;;1.88;1.60;;;-5.60;99.90;;;;;;4935842;29;20084;-74
2021/12/31 10:39:44;;;;;;;2.80;1.85;;;-5.60;99.90;;;;;;4936868;29;20525;-75
2021/12/31 10:42:13;;;;;;;2.40;1.92;;;-5.60;99.90;;;;;;4955106;28;20031;-74
2021/12/31 10:44:54;;;;;;;6.78;2.15;;;-5.60;99.90;;;;;;4946252;28;20126;-70
2021/12/31 10:47:30;;;;;;;1.80;1.48;;;-5.60;99.90;;;;;;4949783;29;20027;-71
2021/12/31 10:50:04;;;;;;;2.17;1.83;;;-5.50;99.90;;;;;;4954834;28;20086;-73
2021/12/31 10:52:39;;;;;;;3.30;2.10;;;-5.50;99.90;;;;;;4954825;28;20035;-73
2021/12/31 10:55:17;;;;;;;2.60;1.85;;;-5.50;99.90;;;;;;4954789;28;20045;-72
2021/12/31 10:57:45;;;;;;;2.60;1.80;;;-5.50;99.90;;;;;;4953867;28;20035;-71
2021/12/31 11:00:12;;;;;;;3.33;2.40;;;-5.40;99.90;;;;;;4954726;28;20039;-73
2021/12/31 11:02:38;;;;;;;1.95;1.73;;;-5.40;99.90;;;;;;4954609;28;20034;-73
2021/12/31 11:05:06;;;;;;;2.25;1.95;;;-5.30;99.90;;;;;;4954643;28;20074;-71
2021/12/31 11:07:32;;;;;;;2.20;1.90;;;-5.30;99.90;;;;;;4954980;28;20062;-70
2021/12/31 11:09:59;;;;;;;2.88;2.33;;;-5.40;99.90;;;;;;4954542;28;20509;-70
2021/12/31 11:12:26;;;;;;;3.78;1.92;;;-5.40;99.90;;;;;;4954661;28;20027;-72
2021/12/31 11:14:53;;;;;;;2.10;1.90;;;-5.30;99.90;;;;;;4954366;28;20024;-69
2021/12/31 11:17:19;;;;;;;2.53;2.03;;;-5.30;99.90;;;;;;4954538;28;20055;-68
2021/12/31 11:19:48;;;;;;;1.92;1.73;;;-5.30;99.90;;;;;;4954336;28;20031;-72
2021/12/31 11:22:15;;;;;;;1.98;1.67;;;-5.30;99.90;;;;;;4941045;28;20054;-72
2021/12/31 11:24:40;;;;;;;2.63;2.00;;;-4.90;99.90;;;;;;4933842;29;20023;-72
2021/12/31 11:27:34;;;;;;;2.30;1.73;;;-3.90;99.90;;;;;;4935083;29;20039;-72
2021/12/31 11:30:00;;;;;;;7.45;1.70;;;-2.70;99.90;;;;;;4935003;29;20082;-71
2021/12/31 11:32:48;;;;;;;2.28;1.92;;;-3.20;99.90;;;;;;4935456;29;20027;-71
2021/12/31 11:35:54;;;;;;;2.63;1.83;;;-3.80;99.90;;;;;;4935106;29;20026;-71
2021/12/31 11:38:26;;;;;;;2.42;1.95;;;-4.30;99.90;;;;;;4933661;29;20139;-71
2021/12/31 11:41:11;;;;;;;2.00;1.80;;;-4.70;99.90;;;;;;4935105;29;20058;-71
2021/12/31 11:43:42;;;;;;;2.83;2.45;;;-4.80;99.90;;;;;;4935134;29;20384;-71
2021/12/31 11:46:11;;;;;;;2.83;2.00;;;-4.90;99.90;;;;;;4934874;29;20031;-74
2021/12/31 11:51:36;;;;;;;3.53;2.50;;;-5.10;99.90;;;;;;4935148;29;20515;-72
2021/12/31 11:54:03;;;;;;;3.80;2.50;;;-5.20;99.90;;;;;;4931804;29;20179;-74
2021/12/31 11:56:49;;;;;;;3.42;2.10;;;-5.30;99.90;;;;;;4934807;29;20024;-74
2021/12/31 11:59:19;;;;;;;2.67;1.88;;;-5.30;99.90;;;;;;4933467;29;20100;-74
2021/12/31 12:01:55;;;;;;;2.08;1.83;;;-5.40;99.90;;;;;;4934911;29;20498;-74
2021/12/31 12:04:45;;;;;;;2.28;2.03;;;-5.40;99.90;;;;;;4934692;29;20031;-72
2021/12/31 12:07:30;;;;;;;2.00;1.67;;;-5.60;99.90;;;;;;4934871;29;20024;-74
2021/12/31 12:09:55;;;;;;;2.15;1.63;;;-5.70;99.90;;;;;;4946071;28;20059;-72
2021/12/31 12:12:21;;;;;;;3.08;1.77;;;-5.80;99.90;;;;;;4949078;28;20024;-74
2021/12/31 12:14:49;;;;;;;2.97;2.15;;;-5.90;99.90;;;;;;4945991;29;20082;-72
2021/12/31 12:17:30;;;;;;;1.98;1.55;;;-6.00;99.90;;;;;;4946944;29;20119;-73
2021/12/31 12:20:02;;;;;;;2.90;1.90;;;-5.30;99.90;;;;;;4955170;29;20372;-73
2021/12/31 12:22:37;;;;;;;2.90;2.08;;;-4.10;99.90;;;;;;4957547;28;20032;-72
2021/12/31 12:25:10;;;;;;;2.58;2.28;;;-4.40;99.90;;;;;;4957531;28;20031;-72
2021/12/31 12:27:36;;;;;;;2.05;1.80;;;-4.70;99.90;;;;;;4957841;28;20039;-70
2021/12/31 12:30:06;;;;;;;2.33;1.60;;;-4.90;99.90;;;;;;4948874;28;20126;-71
2021/12/31 12:35:16;;;;;;;3.03;2.00;;;-4.80;99.90;;;;;;4947774;29;20380;-69
2021/12/31 12:37:42;;;;;;;3.17;2.45;;;-4.90;99.90;;;;;;4945197;29;20028;-70
2021/12/31 12:40:09;;;;;;;2.30;1.70;;;-5.00;99.90;;;;;;4948976;28;20122;-70
2021/12/31 12:42:36;;;;;;;2.20;2.00;;;-5.00;99.90;;;;;;4946882;28;20020;-70
2021/12/31 12:45:07;;;;;;;2.95;1.90;;;-5.00;99.90;;;;;;4947985;29;20494;-69
2021/12/31 12:47:37;;;;;;;2.08;1.80;;;-5.00;99.90;;;;;;4947250;29;20107;-69
2021/12/31 12:50:09;;;;;;;2.85;2.03;;;-5.00;99.90;;;;;;4945911;28;20016;-69
2021/12/31 12:52:35;;;;;;;2.47;1.90;;;-5.10;99.90;;;;;;4947117;28;20027;-70
2021/12/31 12:55:17;;;;;;;2.63;1.98;;;-5.20;99.90;;;;;;4947742;29;20035;-68
2021/12/31 12:57:50;;;;;;;2.35;1.95;;;-5.30;99.90;;;;;;4944986;29;20078;-70
2021/12/31 13:00:16;;;;;;;3.15;2.15;;;-4.10;99.90;;;;;;4946308;29;20479;-70
2021/12/31 13:02:43;;;;;;;3.17;1.80;;;-3.90;99.90;;;;;;4951331;28;20027;-70
2021/12/31 13:05:16;;;;;;;2.60;1.67;;;-4.20;99.90;;;;;;4948096;28;20034;-70
2021/12/31 13:07:51;;;;;;;2.67;1.92;;;-4.50;99.90;;;;;;4952155;29;20489;-70
2021/12/31 13:10:18;;;;;;;3.40;1.80;;;-4.70;99.90;;;;;;4956964;28;20419;-70
2021/12/31 13:12:44;;;;;;;3.30;2.13;;;-4.90;99.90;;;;;;4956787;28;20166;-70
2021/12/31 13:15:09;;;;;;;2.70;2.13;;;-5.10;99.90;;;;;;4950343;28;20114;-70
2021/12/31 13:17:36;;;;;;;3.10;2.10;;;-5.20;99.90;;;;;;4946369;29;20045;-69
2021/12/31 13:20:11;;;;;;;3.55;1.98;;;-5.20;99.90;;;;;;4937820;28;20031;-69
2021/12/31 13:22:37;;;;;;;2.45;1.73;;;-5.20;99.90;;;;;;4942579;29;20067;-70
2021/12/31 13:25:05;;;;;;;2.92;1.60;;;-5.20;99.90;;;;;;4956458;28;20023;-71
2021/12/31 13:27:32;;;;;;;2.33;1.60;;;-5.30;99.90;;;;;;4958369;28;20028;-70
2021/12/31 13:30:13;;;;;;;2.28;1.80;;;-5.40;99.90;;;;;;4956234;28;20024;-72
2021/12/31 13:32:46;;;;;;;3.40;1.77;;;-5.40;99.90;;;;;;4956475;28;20102;-73
2021/12/31 13:35:15;;;;;;;3.15;1.75;;;-5.50;99.90;;;;;;4956217;28;20019;-70
2021/12/31 13:37:42;;;;;;;2.53;1.90;;;-5.50;99.90;;;;;;4951681;28;20055;-71
2021/12/31 13:40:20;;;;;;;2.03;1.77;;;-5.50;99.90;;;;;;4937134;28;20480;-71
2021/12/31 13:43:08;;;;;;;1.73;1.58;;;-5.50;99.90;;;;;;4936422;28;20163;-73
2021/12/31 13:45:34;;;;;;;2.53;2.13;;;-5.50;99.90;;;;;;4936661;29;20028;-72
2021/12/31 13:48:14;;;;;;;2.50;2.30;;;-5.10;99.90;;;;;;4941306;29;20035;-72
2021/12/31 13:50:40;;;;;;;4.35;3.47;;;-5.20;99.90;;;;;;4936395;29;20035;-73
2021/12/31 13:53:06;;;;;;;34.63;13.52;;;-5.30;99.90;;;;;;4936466;28;20503;-72
2021/12/31 13:55:32;;;;;;;18.23;8.18;;;-5.40;99.90;;;;;;4936534;29;20032;-72
2021/12/31 13:58:03;;;;;;;10.02;5.20;;;-5.60;99.90;;;;;;4947935;29;20035;-72
2021/12/31 14:00:31;;;;;;;2.95;2.50;;;-5.60;99.90;;;;;;4949312;28;20035;-74
2021/12/31 14:02:57;;;;;;;3.53;2.33;;;-5.60;99.90;;;;;;4936596;29;20078;-73
2021/12/31 14:05:27;;;;;;;4.35;2.38;;;-5.70;99.90;;;;;;4936447;29;20031;-72